Quamba, Minnesota
Current Conditions -  °F | °C
As of 2:34 AM on Sunday 26 Oct 2014 (Local Time) from KJMR Reporting Station
Clear Clear  
Wind Chill:   Ceiling: Unl
Heat Index:   Visibility: 10mi
Dew Point: -2°   Wind: 0mph
Humidity: 87%   Direction: NA
Pressure: 30.03"   Gusts: NA
Location:  45.9652°N, 93.2874°W
Report Text: KJMR 260734Z AUTO 00000KT 10SM CLR 00/M02 A3003 RMK AO2
Loading
Personal Weather Stations






























Interactive Weather Map
Tropical Storm Tracking
New forecast layout! Learn more

10-Day Weather Forecast

Advertisements
Track Severe Weather on mobile